createdAt,value
2017-08-24T00:00:58.217Z,81.90
2017-08-24T00:03:26.546Z,81.70
2017-08-24T00:05:54.897Z,81.80
2017-08-24T00:08:23.222Z,81.60
2017-08-24T00:10:51.523Z,80.90
2017-08-24T00:13:19.862Z,81.50
2017-08-24T00:15:48.168Z,82.30
2017-08-24T00:18:16.491Z,83.30
2017-08-24T00:20:44.808Z,83.00
2017-08-24T00:23:13.134Z,82.50
2017-08-24T00:25:42.221Z,82.90
2017-08-24T00:28:10.569Z,82.90
2017-08-24T00:30:38.887Z,83.50
2017-08-24T00:33:07.224Z,83.60
2017-08-24T00:35:35.545Z,83.60
2017-08-24T00:38:04.669Z,83.80
2017-08-24T00:40:32.977Z,83.80
2017-08-24T00:43:01.285Z,83.80
2017-08-24T00:45:29.635Z,83.80
2017-08-24T00:47:57.946Z,84.00
2017-08-24T00:50:27.052Z,84.40
2017-08-24T00:52:55.378Z,84.30
2017-08-24T00:55:24.472Z,83.30
2017-08-24T00:57:52.791Z,83.30
2017-08-24T01:00:21.121Z,83.20
2017-08-24T01:02:49.450Z,83.90
2017-08-24T01:05:17.788Z,84.40
2017-08-24T01:07:46.096Z,84.80
2017-08-24T01:10:14.451Z,84.40
2017-08-24T01:12:42.762Z,84.20
2017-08-24T01:15:11.094Z,84.70
2017-08-24T01:17:39.407Z,84.70
2017-08-24T01:20:07.755Z,85.00
2017-08-24T01:22:36.066Z,85.10
2017-08-24T01:25:04.368Z,85.30
2017-08-24T01:27:32.706Z,85.40
2017-08-24T01:30:01.022Z,85.20
2017-08-24T01:32:29.357Z,85.20
2017-08-24T01:34:57.665Z,85.30
2017-08-24T01:37:26.001Z,85.20
2017-08-24T01:39:54.315Z,85.30
2017-08-24T01:42:22.645Z,85.60
2017-08-24T01:44:50.955Z,85.50
2017-08-24T01:47:19.298Z,85.50
2017-08-24T01:49:47.605Z,84.70
2017-08-24T01:52:15.937Z,84.90
2017-08-24T01:54:44.250Z,85.10
2017-08-24T01:57:12.590Z,84.80
2017-08-24T01:59:40.948Z,85.20
2017-08-24T02:02:09.393Z,84.80
2017-08-24T02:04:37.776Z,85.60
2017-08-24T02:07:06.230Z,85.50
2017-08-24T02:09:34.613Z,85.70
2017-08-24T02:12:02.916Z,86.00
2017-08-24T02:14:31.255Z,86.00
2017-08-24T02:16:59.570Z,85.80
2017-08-24T02:19:27.906Z,85.50
2017-08-24T02:21:56.218Z,85.90
2017-08-24T02:24:24.565Z,86.20
2017-08-24T02:26:52.886Z,85.80
2017-08-24T02:29:21.250Z,85.60
2017-08-24T02:31:49.577Z,85.70
2017-08-24T02:34:17.888Z,85.30
2017-08-24T02:36:46.474Z,86.00
2017-08-24T02:39:15.559Z,87.30
2017-08-24T02:41:43.894Z,87.20
2017-08-24T02:44:12.222Z,86.40
2017-08-24T02:46:40.568Z,86.00
2017-08-24T02:49:08.873Z,85.90
2017-08-24T02:51:37.218Z,85.70
2017-08-24T02:54:05.545Z,85.30
2017-08-24T02:56:33.910Z,86.20
2017-08-24T02:59:02.212Z,85.40
2017-08-24T03:01:30.673Z,85.90
2017-08-24T03:03:58.977Z,85.90
2017-08-24T03:06:27.283Z,85.70
2017-08-24T03:08:55.604Z,86.10
2017-08-24T03:11:23.911Z,86.50
2017-08-24T03:13:52.257Z,86.50
2017-08-24T03:16:20.561Z,86.50
2017-08-24T03:18:48.889Z,86.00
2017-08-24T03:21:17.191Z,86.30
2017-08-24T03:23:45.532Z,86.20
2017-08-24T03:26:13.841Z,85.70
2017-08-24T03:28:42.181Z,85.70
2017-08-24T03:31:10.488Z,85.80
2017-08-24T03:33:38.838Z,85.70
2017-08-24T03:36:07.157Z,85.60
2017-08-24T03:38:35.481Z,86.00
2017-08-24T03:41:03.810Z,86.50
2017-08-24T03:43:32.116Z,86.70
2017-08-24T03:46:00.433Z,86.70
2017-08-24T03:48:28.736Z,87.00
2017-08-24T03:50:57.063Z,86.60
2017-08-24T03:53:27.308Z,86.60
2017-08-24T03:55:55.641Z,87.20
2017-08-24T03:58:23.955Z,87.40
2017-08-24T04:00:52.272Z,86.70
2017-08-24T04:03:20.568Z,86.50
2017-08-24T04:05:48.918Z,86.40
2017-08-24T04:08:17.236Z,86.70
2017-08-24T04:10:46.304Z,88.30
2017-08-24T04:13:14.626Z,88.30
2017-08-24T04:15:42.933Z,87.50
2017-08-24T04:18:11.249Z,86.80
2017-08-24T04:20:39.563Z,86.20
2017-08-24T04:23:08.816Z,87.70
2017-08-24T04:25:38.084Z,87.20
2017-08-24T04:28:06.414Z,87.20
2017-08-24T04:30:35.479Z,87.80
2017-08-24T04:33:03.802Z,87.70
2017-08-24T04:35:32.116Z,88.10
2017-08-24T04:38:00.440Z,87.50
2017-08-24T04:40:28.735Z,88.20
2017-08-24T04:42:57.065Z,88.60
2017-08-24T04:45:25.360Z,88.60
2017-08-24T04:47:53.660Z,88.60
2017-08-24T04:50:21.988Z,88.20
2017-08-24T04:52:50.300Z,88.10
2017-08-24T04:55:18.624Z,88.50
2017-08-24T04:57:46.944Z,88.20
2017-08-24T05:00:15.272Z,88.50
2017-08-24T05:02:43.598Z,88.40
2017-08-24T05:05:11.957Z,87.80
2017-08-24T05:07:40.277Z,88.50
2017-08-24T05:10:08.613Z,87.90
2017-08-24T05:12:36.926Z,88.50
2017-08-24T05:15:05.264Z,89.00
2017-08-24T05:17:33.583Z,88.60
2017-08-24T05:20:01.912Z,88.30
2017-08-24T05:22:30.213Z,89.10
2017-08-24T05:24:58.547Z,89.90
2017-08-24T05:27:26.857Z,89.50
2017-08-24T05:29:55.159Z,89.60
2017-08-24T05:32:23.471Z,88.90
2017-08-24T05:34:51.785Z,88.90
2017-08-24T05:37:20.129Z,88.60
2017-08-24T05:39:49.209Z,88.90
2017-08-24T05:42:17.525Z,88.90
2017-08-24T05:44:45.842Z,88.60
2017-08-24T05:47:14.160Z,88.30
2017-08-24T05:49:43.226Z,88.20
2017-08-24T05:52:11.547Z,88.20
2017-08-24T05:54:39.852Z,88.40
2017-08-24T06:00:08.563Z,87.50
2017-08-24T06:02:36.917Z,87.60
2017-08-24T06:05:05.251Z,88.30
2017-08-24T06:07:33.595Z,88.50
2017-08-24T06:10:01.918Z,88.70
2017-08-24T06:12:30.246Z,88.20
2017-08-24T06:14:58.588Z,87.60
2017-08-24T06:17:30.122Z,88.00
2017-08-24T06:19:58.469Z,87.30
2017-08-24T06:22:26.784Z,86.80
2017-08-24T06:24:55.192Z,86.70
2017-08-24T06:27:23.505Z,86.60
2017-08-24T06:29:51.851Z,86.70
2017-08-24T06:32:20.165Z,86.90
2017-08-24T06:34:48.484Z,87.30
2017-08-24T06:37:16.793Z,86.50
2017-08-24T06:39:45.131Z,87.10
2017-08-24T06:42:13.440Z,87.00
2017-08-24T06:44:41.773Z,86.40
2017-08-24T06:47:10.086Z,86.50
2017-08-24T06:49:38.462Z,86.20
2017-08-24T06:52:06.811Z,86.10
2017-08-24T06:54:35.126Z,86.60
2017-08-24T06:57:03.466Z,85.90
2017-08-24T06:59:31.780Z,85.00
2017-08-24T07:02:00.110Z,85.60
2017-08-24T07:04:28.413Z,85.20
2017-08-24T07:06:56.764Z,84.90
2017-08-24T07:09:25.077Z,84.50
2017-08-24T07:11:53.418Z,84.20
2017-08-24T07:14:21.718Z,83.80
2017-08-24T07:16:50.052Z,84.60
2017-08-24T07:19:18.368Z,84.10
2017-08-24T07:21:46.698Z,84.20
2017-08-24T07:24:15.013Z,82.80
2017-08-24T07:26:43.354Z,84.00
2017-08-24T07:29:11.684Z,82.40
2017-08-24T07:31:40.030Z,83.10
2017-08-24T07:34:08.353Z,82.20
2017-08-24T07:36:36.678Z,82.40
2017-08-24T07:39:05.059Z,82.00
2017-08-24T07:41:33.362Z,82.00
2017-08-24T07:44:01.694Z,82.50
2017-08-24T07:46:30.002Z,82.40
2017-08-24T07:48:58.329Z,82.40
2017-08-24T07:51:26.644Z,83.30
2017-08-24T07:53:54.978Z,82.30
2017-08-24T07:56:23.285Z,81.30
2017-08-24T07:58:51.632Z,81.50
2017-08-24T08:01:19.954Z,81.60
2017-08-24T08:03:49.051Z,82.30
2017-08-24T08:06:17.358Z,82.20
2017-08-24T08:08:45.694Z,82.40
2017-08-24T08:11:14.015Z,82.40
2017-08-24T08:13:42.355Z,81.30
2017-08-24T08:16:10.678Z,81.90
2017-08-24T08:18:39.039Z,81.70
2017-08-24T08:21:07.350Z,81.90
2017-08-24T08:23:35.665Z,82.00
2017-08-24T08:26:04.007Z,81.80
2017-08-24T08:28:32.315Z,81.60
2017-08-24T08:31:00.646Z,81.30
2017-08-24T08:33:28.952Z,82.30
2017-08-24T08:35:57.282Z,82.00
2017-08-24T08:38:25.602Z,81.70
2017-08-24T08:40:53.939Z,81.30
2017-08-24T08:43:22.252Z,81.70
2017-08-24T08:45:50.583Z,81.30
2017-08-24T08:48:18.910Z,80.70
2017-08-24T08:50:47.246Z,80.70
2017-08-24T08:53:15.566Z,80.30
2017-08-24T08:55:43.930Z,80.80
2017-08-24T08:58:12.254Z,81.10
2017-08-24T09:00:40.569Z,81.20
2017-08-24T09:03:08.895Z,78.70
2017-08-24T09:05:37.223Z,78.80
2017-08-24T09:08:05.563Z,79.60
2017-08-24T09:10:33.862Z,78.50
2017-08-24T09:13:02.187Z,76.30
2017-08-24T09:15:30.511Z,76.60
2017-08-24T09:17:58.842Z,73.80
2017-08-24T09:20:27.155Z,72.50
2017-08-24T09:22:55.483Z,72.00
2017-08-24T09:25:23.787Z,72.60
2017-08-24T09:27:52.119Z,71.90
2017-08-24T09:30:20.426Z,71.90
2017-08-24T09:32:48.758Z,70.30
2017-08-24T09:35:17.066Z,69.90
2017-08-24T09:37:45.387Z,70.60
2017-08-24T09:40:13.717Z,69.90
2017-08-24T09:42:42.024Z,69.30
2017-08-24T09:45:10.354Z,68.70
2017-08-24T09:47:38.670Z,68.30
2017-08-24T09:50:07.011Z,66.70
2017-08-24T09:52:36.087Z,66.90
2017-08-24T09:55:04.429Z,66.90
2017-08-24T09:57:32.741Z,66.20
2017-08-24T10:00:01.060Z,65.20
2017-08-24T10:02:29.413Z,64.10
2017-08-24T10:04:57.747Z,63.60
2017-08-24T10:07:26.045Z,62.50
2017-08-24T10:09:54.382Z,64.20
2017-08-24T10:12:22.719Z,62.90
2017-08-24T10:14:51.060Z,63.00
2017-08-24T10:17:19.369Z,60.70
2017-08-24T10:19:47.682Z,59.10
2017-08-24T10:22:16.017Z,59.50
2017-08-24T10:24:44.322Z,60.40
2017-08-24T10:27:12.658Z,59.10
2017-08-24T10:29:40.994Z,58.10
2017-08-24T10:32:09.318Z,58.70
2017-08-24T10:34:37.638Z,58.80
2017-08-24T10:37:05.971Z,58.60
2017-08-24T10:39:34.276Z,57.20
2017-08-24T10:42:02.609Z,58.30
2017-08-24T10:44:30.914Z,56.70
2017-08-24T10:46:59.250Z,57.60
2017-08-24T10:49:27.567Z,57.20
2017-08-24T10:51:55.874Z,57.80
2017-08-24T10:54:24.198Z,56.50
2017-08-24T10:56:52.511Z,56.20
2017-08-24T10:59:20.839Z,56.80
2017-08-24T11:01:49.141Z,56.60
2017-08-24T11:04:17.474Z,56.20
2017-08-24T11:06:45.790Z,57.60
2017-08-24T11:09:14.114Z,56.80
2017-08-24T11:11:42.417Z,57.10
2017-08-24T11:14:10.749Z,57.00
2017-08-24T11:16:39.065Z,56.80
2017-08-24T11:19:08.154Z,57.40
2017-08-24T11:21:36.460Z,57.40
2017-08-24T11:24:04.791Z,58.30
2017-08-24T11:26:33.119Z,56.40
2017-08-24T11:29:01.434Z,55.20
2017-08-24T11:31:29.765Z,54.20
2017-08-24T11:33:58.077Z,55.00
2017-08-24T11:36:26.406Z,56.40
2017-08-24T11:38:55.479Z,55.00
2017-08-24T11:41:23.810Z,55.00
2017-08-24T11:43:52.135Z,55.80
2017-08-24T11:46:20.468Z,55.80
2017-08-24T11:48:48.793Z,54.40
2017-08-24T11:51:17.100Z,55.50
2017-08-24T11:53:45.415Z,55.60
2017-08-24T11:59:15.098Z,54.30
2017-08-24T12:01:44.178Z,54.70
2017-08-24T12:04:12.531Z,54.70
2017-08-24T12:06:40.847Z,54.50
2017-08-24T12:09:09.163Z,55.30
2017-08-24T12:11:37.499Z,54.40
2017-08-24T12:14:05.827Z,54.50
2017-08-24T12:16:40.984Z,55.50
2017-08-24T12:19:10.078Z,54.50
2017-08-24T12:21:38.388Z,54.40
2017-08-24T12:24:06.729Z,55.30
2017-08-24T12:26:35.043Z,55.40
2017-08-24T12:29:03.370Z,55.20
2017-08-24T12:31:31.679Z,54.80
2017-08-24T12:34:00.017Z,53.80
2017-08-24T12:36:28.334Z,53.20
2017-08-24T12:38:56.666Z,53.40
2017-08-24T12:41:24.971Z,54.40
2017-08-24T12:43:53.302Z,54.50
2017-08-24T12:46:21.598Z,53.10
2017-08-24T12:48:49.940Z,53.80
2017-08-24T12:51:18.250Z,53.80
2017-08-24T12:53:46.593Z,53.50
2017-08-24T12:56:14.899Z,52.90
2017-08-24T12:58:43.250Z,54.50
2017-08-24T13:01:11.563Z,53.20
2017-08-24T13:03:39.914Z,51.80
2017-08-24T13:06:08.247Z,53.70
2017-08-24T13:08:36.562Z,53.20
2017-08-24T13:11:04.895Z,53.10
2017-08-24T13:13:33.232Z,52.40
2017-08-24T13:16:01.561Z,52.60
2017-08-24T13:18:29.856Z,53.50
2017-08-24T13:20:58.185Z,53.40
2017-08-24T13:23:26.499Z,53.00
2017-08-24T13:25:54.826Z,52.60
2017-08-24T13:28:23.138Z,52.90
2017-08-24T13:30:51.474Z,53.40
2017-08-24T13:33:19.802Z,52.20
2017-08-24T13:35:48.141Z,52.70
2017-08-24T13:38:16.465Z,52.00
2017-08-24T13:40:44.817Z,51.60
2017-08-24T13:43:13.131Z,53.10
2017-08-24T13:45:41.509Z,52.70
2017-08-24T13:48:09.814Z,51.30
2017-08-24T13:50:38.142Z,52.00
2017-08-24T13:53:06.450Z,51.10
2017-08-24T13:55:34.779Z,51.30
2017-08-24T13:58:03.078Z,52.40
2017-08-24T14:00:31.425Z,52.10
2017-08-24T14:02:59.751Z,52.70
2017-08-24T14:05:28.079Z,53.00
2017-08-24T14:07:56.395Z,52.90
2017-08-24T14:10:24.746Z,54.00
2017-08-24T14:12:53.045Z,51.90
2017-08-24T14:15:21.374Z,53.00
2017-08-24T14:17:49.715Z,53.50
2017-08-24T14:20:18.020Z,53.10
2017-08-24T14:22:46.344Z,52.50
2017-08-24T14:25:14.645Z,52.30
2017-08-24T14:27:42.978Z,52.20
2017-08-24T14:30:11.286Z,52.30
2017-08-24T14:32:39.626Z,52.60
2017-08-24T14:35:07.927Z,52.20
2017-08-24T14:37:36.256Z,52.00
2017-08-24T14:40:04.561Z,51.60
2017-08-24T14:42:32.885Z,53.00
2017-08-24T14:45:01.196Z,54.00
2017-08-24T14:47:29.529Z,52.60
2017-08-24T14:49:57.843Z,52.40
2017-08-24T14:52:26.171Z,52.70
2017-08-24T14:54:54.492Z,52.20
2017-08-24T14:57:22.826Z,52.90
2017-08-24T14:59:51.154Z,53.20
2017-08-24T15:02:19.487Z,53.00
2017-08-24T15:04:48.677Z,52.70
2017-08-24T15:07:17.007Z,52.00
2017-08-24T15:09:45.315Z,52.50
2017-08-24T15:12:13.650Z,52.90
2017-08-24T15:14:41.964Z,52.30
2017-08-24T15:17:10.307Z,52.40
2017-08-24T15:19:38.614Z,52.70
2017-08-24T15:22:06.965Z,51.00
2017-08-24T15:24:35.273Z,50.80
2017-08-24T15:27:03.590Z,50.60
2017-08-24T15:29:31.920Z,51.80
2017-08-24T15:32:00.232Z,51.60
2017-08-24T15:34:28.575Z,51.10
2017-08-24T15:36:56.886Z,51.60
2017-08-24T15:39:25.214Z,50.40
2017-08-24T15:41:53.537Z,50.70
2017-08-24T15:44:21.875Z,51.20
2017-08-24T15:46:50.190Z,51.70
2017-08-24T15:49:18.572Z,50.60
2017-08-24T15:51:46.879Z,50.10
2017-08-24T15:54:15.219Z,51.00
2017-08-24T15:56:43.526Z,49.70
2017-08-24T15:59:11.866Z,50.30
2017-08-24T16:01:40.170Z,51.00
2017-08-24T16:04:08.498Z,50.50
2017-08-24T16:06:36.801Z,51.30
2017-08-24T16:09:05.130Z,51.70
2017-08-24T16:11:33.443Z,51.60
2017-08-24T16:14:01.770Z,51.40
2017-08-24T16:16:30.842Z,52.20
2017-08-24T16:18:59.173Z,52.20
2017-08-24T16:21:27.493Z,51.70
2017-08-24T16:23:55.878Z,51.60
2017-08-24T16:26:24.185Z,51.80
2017-08-24T16:28:53.297Z,52.30
2017-08-24T16:31:21.610Z,52.30
2017-08-24T16:33:49.985Z,51.90
2017-08-24T16:36:18.284Z,51.40
2017-08-24T16:38:46.590Z,52.20
2017-08-24T16:41:15.708Z,52.10
2017-08-24T16:43:44.021Z,52.10
2017-08-24T16:46:12.382Z,51.60
2017-08-24T16:48:40.695Z,52.10
2017-08-24T16:51:09.025Z,51.80
2017-08-24T16:53:37.339Z,51.80
2017-08-24T16:56:05.683Z,51.90
2017-08-24T17:01:28.763Z,52.30
2017-08-24T17:03:57.061Z,52.40
2017-08-24T17:06:25.395Z,52.70
2017-08-24T17:08:53.733Z,52.40
2017-08-24T17:11:22.830Z,53.00
2017-08-24T17:13:51.147Z,52.90
2017-08-24T17:16:19.486Z,53.10
2017-08-24T17:18:47.790Z,54.10
2017-08-24T17:21:16.126Z,53.80
2017-08-24T17:23:44.473Z,54.00
2017-08-24T17:26:12.783Z,53.40
2017-08-24T17:28:41.102Z,52.70
2017-08-24T17:31:10.197Z,54.50
2017-08-24T17:33:38.514Z,53.90
2017-08-24T17:36:06.846Z,54.10
2017-08-24T17:38:35.166Z,54.10
2017-08-24T17:41:03.491Z,55.50
2017-08-24T17:43:32.725Z,55.70
2017-08-24T17:46:01.049Z,56.30
2017-08-24T17:48:29.360Z,56.60
2017-08-24T17:50:57.699Z,57.40
2017-08-24T17:53:26.005Z,57.30
2017-08-24T17:55:54.345Z,58.00
2017-08-24T17:58:22.660Z,58.00
2017-08-24T18:00:51.011Z,59.00
2017-08-24T18:03:19.318Z,58.70
2017-08-24T18:05:47.623Z,58.90
2017-08-24T18:08:15.972Z,59.20
2017-08-24T18:10:44.292Z,58.70
2017-08-24T18:13:12.630Z,58.80
2017-08-24T18:15:40.962Z,59.50
2017-08-24T18:18:09.303Z,60.30
2017-08-24T18:20:38.407Z,61.30
2017-08-24T18:23:06.748Z,61.30
2017-08-24T18:25:35.057Z,61.50
2017-08-24T18:28:04.167Z,61.40
2017-08-24T18:30:32.486Z,61.40
2017-08-24T18:33:00.834Z,61.60
2017-08-24T18:35:29.181Z,61.60
2017-08-24T18:37:57.583Z,62.60
2017-08-24T18:40:25.919Z,62.60
2017-08-24T18:42:54.320Z,61.60
2017-08-24T18:45:23.422Z,63.20
2017-08-24T18:47:51.750Z,63.20
2017-08-24T18:50:20.073Z,63.30
2017-08-24T18:52:48.395Z,63.80
2017-08-24T18:55:16.759Z,64.10
2017-08-24T18:57:45.066Z,65.10
2017-08-24T19:00:14.420Z,64.90
2017-08-24T19:02:42.734Z,66.20
2017-08-24T19:05:11.096Z,66.50
2017-08-24T19:07:39.414Z,66.10
2017-08-24T19:10:08.950Z,66.20
2017-08-24T19:12:38.309Z,66.70
2017-08-24T19:15:06.656Z,67.40
2017-08-24T19:17:35.007Z,67.90
2017-08-24T19:20:03.330Z,68.70
2017-08-24T19:22:31.674Z,68.20
2017-08-24T19:24:59.982Z,68.20
2017-08-24T19:27:28.323Z,68.90
2017-08-24T19:29:56.696Z,69.00
2017-08-24T19:32:25.070Z,70.10
2017-08-24T19:34:53.423Z,69.90
2017-08-24T19:37:21.758Z,70.90
2017-08-24T19:39:50.079Z,70.50
2017-08-24T19:42:18.460Z,70.90
2017-08-24T19:44:46.753Z,70.80
2017-08-24T19:47:15.079Z,70.50
2017-08-24T19:49:43.435Z,71.10
2017-08-24T19:52:11.743Z,70.50
2017-08-24T19:54:40.082Z,71.10
2017-08-24T19:57:08.407Z,70.70
2017-08-24T19:59:36.735Z,71.00
2017-08-24T20:02:05.062Z,71.70
2017-08-24T20:04:33.413Z,72.90
2017-08-24T20:07:01.743Z,73.20
2017-08-24T20:09:30.158Z,73.20
2017-08-24T20:11:58.492Z,73.10
2017-08-24T20:14:26.819Z,73.20
2017-08-24T20:16:55.148Z,74.20
2017-08-24T20:19:23.507Z,73.70
2017-08-24T20:21:51.826Z,72.70
2017-08-24T20:24:20.134Z,72.90
2017-08-24T20:26:48.481Z,73.80
2017-08-24T20:29:16.786Z,75.00
2017-08-24T20:31:45.121Z,74.40
2017-08-24T20:34:13.425Z,73.80
2017-08-24T20:36:41.766Z,74.40
2017-08-24T20:39:10.075Z,75.20
2017-08-24T20:41:38.403Z,75.00
2017-08-24T20:44:06.713Z,75.50
2017-08-24T20:46:35.041Z,73.60
2017-08-24T20:49:03.350Z,74.20
2017-08-24T20:51:31.684Z,74.90
2017-08-24T20:53:59.990Z,75.30
2017-08-24T20:56:28.331Z,74.90
2017-08-24T20:58:56.637Z,74.90
2017-08-24T21:01:24.938Z,74.80
2017-08-24T21:03:53.275Z,74.90
2017-08-24T21:06:21.593Z,75.20
2017-08-24T21:08:49.926Z,75.50
2017-08-24T21:11:18.243Z,75.20
2017-08-24T21:13:46.566Z,75.80
2017-08-24T21:16:14.871Z,75.50
2017-08-24T21:18:43.198Z,74.90
2017-08-24T21:21:11.524Z,75.70
2017-08-24T21:23:39.858Z,75.90
2017-08-24T21:26:08.164Z,76.20
2017-08-24T21:28:36.489Z,75.70
2017-08-24T21:31:04.794Z,76.20
2017-08-24T21:33:33.125Z,76.50
2017-08-24T21:36:01.441Z,76.50
2017-08-24T21:38:29.749Z,75.70
2017-08-24T21:40:58.082Z,75.10
2017-08-24T21:43:26.405Z,75.40
2017-08-24T21:45:54.734Z,76.00
2017-08-24T21:48:23.056Z,76.40
2017-08-24T21:50:51.385Z,76.00
2017-08-24T21:53:19.719Z,75.40
2017-08-24T21:55:48.056Z,75.30
2017-08-24T21:58:17.121Z,76.40
2017-08-24T22:00:45.453Z,76.40
2017-08-24T22:03:14.551Z,77.20
2017-08-24T22:05:42.878Z,77.20
2017-08-24T22:08:11.191Z,77.00
2017-08-24T22:10:39.518Z,77.50
2017-08-24T22:13:08.600Z,77.50
2017-08-24T22:15:36.937Z,76.80
2017-08-24T22:18:05.242Z,77.90
2017-08-24T22:20:34.478Z,78.40
2017-08-24T22:23:02.809Z,79.20
2017-08-24T22:25:31.110Z,79.30
2017-08-24T22:27:59.442Z,79.50
2017-08-24T22:30:27.754Z,78.80
2017-08-24T22:32:56.087Z,79.10
2017-08-24T22:35:24.399Z,78.70
2017-08-24T22:37:52.735Z,79.50
2017-08-24T22:40:21.043Z,78.90
2017-08-24T22:42:49.386Z,78.50
2017-08-24T22:45:17.697Z,79.60
2017-08-24T22:47:46.045Z,79.40
2017-08-24T22:50:14.399Z,79.50
2017-08-24T22:52:42.711Z,79.20
2017-08-24T22:55:16.845Z,78.90
2017-08-24T22:57:50.723Z,79.90
2017-08-24T23:00:24.716Z,80.20
2017-08-24T23:02:58.792Z,80.80
2017-08-24T23:05:27.123Z,81.20
2017-08-24T23:07:55.431Z,81.30
2017-08-24T23:10:23.766Z,81.00
2017-08-24T23:12:52.080Z,81.10
2017-08-24T23:15:20.406Z,80.90
2017-08-24T23:17:48.710Z,81.50
2017-08-24T23:20:17.042Z,81.60
2017-08-24T23:22:45.399Z,81.30
2017-08-24T23:25:13.739Z,80.90
2017-08-24T23:27:42.049Z,81.60
2017-08-24T23:30:10.372Z,81.80
2017-08-24T23:32:38.697Z,81.80
2017-08-24T23:35:06.994Z,81.60
2017-08-24T23:37:35.313Z,82.40
2017-08-24T23:40:03.621Z,82.10
2017-08-24T23:42:31.959Z,81.90
2017-08-24T23:45:00.287Z,82.60
2017-08-24T23:47:28.624Z,82.50
2017-08-24T23:49:56.934Z,82.00
2017-08-24T23:52:26.251Z,81.20
2017-08-24T23:54:54.582Z,82.10
2017-08-24T23:57:22.906Z,82.40
2017-08-24T23:59:51.223Z,81.80
